Aeroporto :
LOGIN :

Iscrizione | Disclaimer

   EN    FR    IT 

 










Sommario :    VFR   VFR Marginale   IFR   IFR Intensivo   IFR Molto Intensivo
Visibilità : 
Base nubi : 
>= 8 km
>= 3000ft
5 / 8 km
1000 / 3000 ft
1500m / 5 km
500 / 1000 ft
800 / 1500m
200 / 500 ft
< 800m
< 200 ft
Simboli :   Temporali  Nebbia  Neve Forte  Precipitazioni Forti  Vento > 20 kt
SIGMETs :   Varie  Temporali  Ghiacco  Turbolenza  Onda orograficha  Ceneri Vulcaniche







- Altitudine del aeroporto : 116 ft
- Codice IATA : ISC
- Carte del aeroporto


EGHE - Scilly Isles / St Mary's

ULTIMO METAR :
  • 180650Z 14005KT 9999 FEW002 SCT006 BKN010 14/13 Q1013

METARs OBSOLETI :
  • 180620Z 14005KT 2500 BR SCT000 BKN003 14/14 Q1013

TAF TAF EGHE
Valido dal 18 a 06 ore il 18 a 15 ore UTC


180629Z 1806/1815 15005KT 2000 BR BKN003
BECMG 1806/1809 9999 NSW SCT030
TEMPO 1810/1815 6000 SHRA
Nessun NOTAM noto per questo aeroporto.



MetMap, La meteo Aeronautica in un colpo d'occhio ! - Copyright ORBIFLY Dicembre 2007 - Disclaimer

ORBIFLY MET'MAP TEAM :

Programmazione e sviluppo : Alexandra Zaïnal
Concezione e sviluppo : Baudouin d'Aumeries
Co-Programmazione e sviluppo : Marc-Olivier Méhu
Supporto tecnico e logistico : Manuel Goepfert
Aiuto per la traduzione : Arnaldo La Scala

Contatto : metmap@orbifly.com




FONTI E CREDITI :

   NOAA